This is the latest recevied weather packets stored in our database for station/object HB9HFD-13. If no packets are shown the sender has not sent any weather packets the latest 10 day(s).
| Time | Temp. | Humidity | Pressure | Rain* | Wind** | Luminosity | Snow |
|---|---|---|---|---|---|---|---|
| 1778008511 | 11.11° C | 92% | 1007.8 hPa | 0.25 mm | - | - | - |
| 1778008211 | 11.11° C | 92% | 1007.7 hPa | 0.25 mm | - | - | - |
| 1778007911 | 11.11° C | 92% | 1007.6 hPa | 0.25 mm | - | - | - |
| 1778007611 | 11.11° C | 91% | 1007.6 hPa | 0.25 mm | - | - | - |
| 1778007310 | 11.11° C | 91% | 1007.6 hPa | 0.76 mm | - | - | - |
| 1778007010 | 11.67° C | 90% | 1007.5 hPa | 1.02 mm | - | - | - |
| 1778006710 | 11.67° C | 90% | 1007.5 hPa | 1.27 mm | - | - | - |
| 1778006410 | 11.67° C | 90% | 1007.4 hPa | 1.27 mm | - | - | - |
| 1778006109 | 11.67° C | 89% | 1007.2 hPa | 1.02 mm | - | - | - |
| 1778005809 | 11.67° C | 88% | 1007.2 hPa | 1.02 mm | - | - | - |
| 1778005509 | 12.22° C | 88% | 1007.1 hPa | 1.02 mm | - | - | - |
| 1778005208 | 12.22° C | 87% | 1007.1 hPa | 1.02 mm | - | - | - |
| 1778004908 | 12.22° C | 87% | 1007.1 hPa | 1.02 mm | - | - | - |
| 1778004608 | 12.78° C | 87% | 1006.9 hPa | 1.02 mm | - | - | - |
| 1778004308 | 12.78° C | 85% | 1006.7 hPa | 1.02 mm | - | - | - |
| 1778004007 | 13.33° C | 84% | 1006.7 hPa | 1.02 mm | - | - | - |
| 1778003707 | 13.89° C | 80% | 1007.3 hPa | 0.51 mm | - | - | - |
| 1778003407 | 14.44° C | 78% | 1007.6 hPa | 0.25 mm | - | - | - |
| 1778003107 | 14.44° C | 75% | 1007.5 hPa | 0 mm | - | - | - |
| 1778002806 | 14.44° C | 76% | 1007.3 hPa | 0 mm | - | - | - |
| 1778002506 | 15° C | 75% | 1007.4 hPa | 0 mm | - | - | - |
| 1778002206 | 15° C | 73% | 1007.3 hPa | 0 mm | - | - | - |
| 1778001905 | 15.56° C | 72% | 1007.2 hPa | 0 mm | - | - | - |
| 1778001605 | 15.56° C | 70% | 1007.1 hPa | 0 mm | - | - | - |
| 1778001305 | 15° C | 67% | 1007.1 hPa | 0 mm | - | - | - |
* Rain latest hour (hover to see other rain measurements)
** Current wind speed in m/s (hover to see current wind gust speed)